createdAt,value
2019-03-05T00:01:37.184Z,4.40
2019-03-05T00:06:43.389Z,5.53
2019-03-05T00:11:49.601Z,4.60
2019-03-05T00:16:55.815Z,5.83
2019-03-05T00:22:01.942Z,4.47
2019-03-05T00:27:08.239Z,4.20
2019-03-05T00:32:14.347Z,4.55
2019-03-05T00:37:32.952Z,5.08
2019-03-05T00:43:01.577Z,4.42
2019-03-05T00:48:33.547Z,4.87
2019-03-05T00:53:57.852Z,4.13
2019-03-05T00:59:19.540Z,4.20
2019-03-05T01:04:51.740Z,4.35
2019-03-05T01:09:57.615Z,5.12
2019-03-05T01:15:04.602Z,4.65
2019-03-05T01:20:11.351Z,4.37
2019-03-05T01:25:30.306Z,4.85
2019-03-05T01:30:50.960Z,3.52
2019-03-05T01:36:04.775Z,3.85
2019-03-05T01:41:12.208Z,3.85
2019-03-05T01:46:18.241Z,4.47
2019-03-05T01:51:24.339Z,3.50
2019-03-05T01:56:30.562Z,4.33
2019-03-05T02:01:36.943Z,3.90
2019-03-05T02:06:43.283Z,4.65
2019-03-05T02:11:49.492Z,3.30
2019-03-05T02:16:55.738Z,3.70
2019-03-05T02:22:02.042Z,3.17
2019-03-05T02:27:57.010Z,2.95
2019-03-05T02:33:29.588Z,3.75
2019-03-05T02:39:00.046Z,3.72
2019-03-05T02:44:42.876Z,4.35
2019-03-05T02:50:26.506Z,3.77
2019-03-05T02:55:58.695Z,4.22
2019-03-05T03:01:24.802Z,3.70
2019-03-05T03:06:33.480Z,4.08
2019-03-05T03:11:39.668Z,3.75
2019-03-05T03:16:45.914Z,4.33
2019-03-05T03:21:52.292Z,3.77
2019-03-05T03:26:59.051Z,4.12
2019-03-05T03:32:05.195Z,3.50
2019-03-05T03:37:11.617Z,4.15
2019-03-05T03:42:17.852Z,3.52
2019-03-05T03:47:23.930Z,4.17
2019-03-05T03:52:30.068Z,4.05
2019-03-05T03:57:36.277Z,4.55
2019-03-05T04:02:42.578Z,4.67
2019-03-05T04:07:48.818Z,4.15
2019-03-05T04:12:55.160Z,4.20
2019-03-05T04:18:02.096Z,4.60
2019-03-05T04:23:08.292Z,5.78
2019-03-05T04:28:14.367Z,4.20
2019-03-05T04:33:20.543Z,4.20
2019-03-05T04:38:26.613Z,3.83
2019-03-05T04:43:32.938Z,4.47
2019-03-05T04:48:39.641Z,3.65
2019-03-05T04:53:45.826Z,5.00
2019-03-05T04:58:52.271Z,4.10
2019-03-05T05:03:58.287Z,4.78
2019-03-05T05:09:05.041Z,4.80
2019-03-05T05:14:11.506Z,5.58
2019-03-05T05:19:17.785Z,4.85
2019-03-05T05:24:23.925Z,6.03
2019-03-05T05:29:30.177Z,4.85
2019-03-05T05:34:36.332Z,5.55
2019-03-05T05:40:18.198Z,5.05
2019-03-05T05:45:25.760Z,4.55
2019-03-05T05:50:31.950Z,4.87
2019-03-05T05:55:38.132Z,4.45
2019-03-05T06:00:46.398Z,4.20
2019-03-05T06:05:52.335Z,4.60
2019-03-05T06:10:58.705Z,5.20
2019-03-05T06:16:04.829Z,8.15
2019-03-05T06:21:10.958Z,8.65
2019-03-05T06:26:17.168Z,12.68
2019-03-05T06:31:23.459Z,11.95
2019-03-05T06:36:44.403Z,12.05
2019-03-05T06:41:50.758Z,11.38
2019-03-05T06:46:56.887Z,11.63
2019-03-05T06:52:03.138Z,10.58
2019-03-05T06:57:09.594Z,8.43
2019-03-05T07:02:15.621Z,8.73
2019-03-05T07:07:21.896Z,11.80
2019-03-05T07:13:14.546Z,13.50
2019-03-05T07:18:24.044Z,15.88
2019-03-05T07:24:06.693Z,31.05
2019-03-05T07:29:13.192Z,15.55
2019-03-05T07:34:25.510Z,19.10
2019-03-05T07:39:31.875Z,13.18
2019-03-05T07:44:38.171Z,12.50
2019-03-05T07:49:44.850Z,11.65
2019-03-05T07:54:52.485Z,8.53
2019-03-05T07:59:58.887Z,8.55
2019-03-05T08:05:05.294Z,6.00
2019-03-05T08:10:31.358Z,6.37
2019-03-05T08:16:40.728Z,5.55
2019-03-05T08:21:47.161Z,6.20
2019-03-05T08:26:53.365Z,5.00
2019-03-05T08:31:59.584Z,6.10
2019-03-05T08:37:05.890Z,8.70
2019-03-05T08:42:12.218Z,7.80
2019-03-05T08:47:18.697Z,6.85
2019-03-05T08:52:24.852Z,6.33
2019-03-05T08:57:31.067Z,7.83
2019-03-05T09:02:47.740Z,9.15
2019-03-05T09:07:45.603Z,10.10
2019-03-05T09:12:51.921Z,9.85
2019-03-05T09:17:58.198Z,10.80
2019-03-05T09:23:04.699Z,11.05
2019-03-05T09:28:10.756Z,11.63
2019-03-05T09:33:19.188Z,11.93
2019-03-05T09:38:24.568Z,10.70
2019-03-05T09:43:30.819Z,11.08
2019-03-05T09:48:37.072Z,7.78
2019-03-05T09:53:43.160Z,9.70
2019-03-05T09:58:49.555Z,7.78
2019-03-05T10:03:55.747Z,8.08
2019-03-05T10:09:01.930Z,7.20
2019-03-05T10:14:08.197Z,6.67
2019-03-05T10:19:14.495Z,5.50
2019-03-05T10:24:20.697Z,5.10
2019-03-05T10:29:26.801Z,5.35
2019-03-05T10:34:33.020Z,5.03
2019-03-05T10:39:39.199Z,5.15
2019-03-05T10:44:45.261Z,4.65
2019-03-05T10:49:51.906Z,4.25
2019-03-05T10:54:58.227Z,3.70
2019-03-05T11:00:06.406Z,4.05
2019-03-05T11:05:12.930Z,4.03
2019-03-05T11:10:20.179Z,3.58
2019-03-05T11:15:27.377Z,3.20
2019-03-05T11:20:35.113Z,3.37
2019-03-05T11:25:41.612Z,2.90
2019-03-05T11:30:47.797Z,3.50
2019-03-05T11:35:54.034Z,2.60
2019-03-05T11:41:00.278Z,2.62
2019-03-05T11:46:11.123Z,2.50
2019-03-05T11:51:17.189Z,2.72
2019-03-05T11:56:23.301Z,2.52
2019-03-05T12:01:38.402Z,2.27
2019-03-05T12:06:44.611Z,2.70
2019-03-05T12:11:50.693Z,2.60
2019-03-05T12:16:56.847Z,2.80
2019-03-05T12:22:03.034Z,2.25
2019-03-05T12:27:09.273Z,2.60
2019-03-05T12:32:15.473Z,2.22
2019-03-05T12:37:21.605Z,2.20
2019-03-05T12:42:27.869Z,2.22
2019-03-05T12:47:34.306Z,2.30
2019-03-05T12:52:40.683Z,2.72
2019-03-05T12:57:47.080Z,2.35
2019-03-05T13:02:53.357Z,2.33
2019-03-05T13:07:59.678Z,2.12
2019-03-05T13:13:05.861Z,2.08
2019-03-05T13:18:14.298Z,2.05
2019-03-05T13:23:20.324Z,2.33
2019-03-05T13:28:26.317Z,1.90
2019-03-05T13:33:33.586Z,3.10
2019-03-05T13:38:41.808Z,2.22
2019-03-05T13:43:52.062Z,2.60
2019-03-05T13:49:18.051Z,2.67
2019-03-05T13:54:56.337Z,2.70
2019-03-05T14:00:02.364Z,2.65
2019-03-05T14:05:37.058Z,2.85
2019-03-05T14:10:43.399Z,2.67
2019-03-05T14:15:49.481Z,3.37
2019-03-05T14:20:55.576Z,3.15
2019-03-05T14:26:01.712Z,3.62
2019-03-05T14:31:07.751Z,3.08
2019-03-05T14:36:14.038Z,3.08
2019-03-05T14:41:20.359Z,3.20
2019-03-05T14:46:26.648Z,2.87
2019-03-05T14:51:32.777Z,2.80
2019-03-05T14:56:39.439Z,2.70
2019-03-05T15:01:45.449Z,2.37
2019-03-05T15:06:51.726Z,2.47
2019-03-05T15:11:59.390Z,2.58
2019-03-05T15:17:05.798Z,2.42
2019-03-05T15:22:11.806Z,2.50
2019-03-05T15:27:17.884Z,2.20
2019-03-05T15:32:24.022Z,2.80
2019-03-05T15:37:30.224Z,2.25
2019-03-05T15:42:36.399Z,2.50
2019-03-05T15:47:42.846Z,2.58
2019-03-05T15:52:49.246Z,2.65
2019-03-05T15:57:55.508Z,2.30
2019-03-05T16:03:03.435Z,2.42
2019-03-05T16:08:09.557Z,2.60
2019-03-05T16:13:19.402Z,2.65
2019-03-05T16:18:23.553Z,2.52
2019-03-05T16:23:29.944Z,2.85
2019-03-05T16:28:39.343Z,2.40
2019-03-05T16:34:09.506Z,2.52
2019-03-05T16:39:35.689Z,2.62
2019-03-05T16:44:59.432Z,2.83
2019-03-05T16:50:25.904Z,2.50
2019-03-05T16:55:50.111Z,2.55
2019-03-05T17:01:30.300Z,2.80
2019-03-05T17:06:45.999Z,2.58
2019-03-05T17:11:57.185Z,2.87
2019-03-05T17:17:03.135Z,4.47
2019-03-05T17:22:09.216Z,4.30
2019-03-05T17:27:15.746Z,5.03
2019-03-05T17:32:22.327Z,5.55
2019-03-05T17:37:28.631Z,3.58
2019-03-05T17:42:34.828Z,6.10
2019-03-05T17:47:40.900Z,4.05
2019-03-05T17:52:47.460Z,6.03
2019-03-05T17:57:53.859Z,16.93
2019-03-05T18:03:00.557Z,23.80
2019-03-05T18:08:06.758Z,11.28
2019-03-05T18:13:13.049Z,12.53
2019-03-05T18:18:19.060Z,8.48
2019-03-05T18:23:25.168Z,5.55
2019-03-05T18:28:31.804Z,4.92
2019-03-05T18:33:38.170Z,3.30
2019-03-05T18:38:44.669Z,3.95
2019-03-05T18:43:50.844Z,7.47
2019-03-05T18:48:56.852Z,3.77
2019-03-05T18:54:02.936Z,3.12
2019-03-05T18:59:09.100Z,3.33
2019-03-05T19:04:15.208Z,4.00
2019-03-05T19:09:22.997Z,3.20
2019-03-05T19:14:29.338Z,6.92
2019-03-05T19:19:35.472Z,4.53
2019-03-05T19:24:42.009Z,4.17
2019-03-05T19:29:48.099Z,4.95
2019-03-05T19:34:54.365Z,5.08
2019-03-05T19:40:00.630Z,3.62
2019-03-05T19:45:07.138Z,3.80
2019-03-05T19:50:15.014Z,3.33
2019-03-05T19:55:21.337Z,3.90
2019-03-05T20:00:36.130Z,3.25
2019-03-05T20:05:42.491Z,3.22
2019-03-05T20:10:48.761Z,2.85
2019-03-05T20:15:55.459Z,2.80
2019-03-05T20:21:01.570Z,3.10
2019-03-05T20:26:07.789Z,2.90
2019-03-05T20:31:14.169Z,3.12
2019-03-05T20:36:20.306Z,4.40
2019-03-05T20:41:26.664Z,3.25
2019-03-05T20:46:32.997Z,2.72
2019-03-05T20:51:39.205Z,2.50
2019-03-05T20:56:45.755Z,2.52
2019-03-05T21:01:51.664Z,2.70
2019-03-05T21:06:57.858Z,2.50
2019-03-05T21:12:04.543Z,2.65
2019-03-05T21:17:10.614Z,3.22
2019-03-05T21:22:16.659Z,3.10
2019-03-05T21:27:22.830Z,2.37
2019-03-05T21:32:29.606Z,2.80
2019-03-05T21:37:36.305Z,2.90
2019-03-05T21:42:42.569Z,3.45
2019-03-05T21:47:48.782Z,3.22
2019-03-05T21:52:55.705Z,2.52
2019-03-05T21:58:01.919Z,2.67
2019-03-05T22:03:08.175Z,2.33
2019-03-05T22:08:14.460Z,2.77
2019-03-05T22:13:20.861Z,3.72
2019-03-05T22:18:26.926Z,4.00
2019-03-05T22:23:33.257Z,2.50
2019-03-05T22:28:39.635Z,2.58
2019-03-05T22:33:45.564Z,2.85
2019-03-05T22:38:51.733Z,2.30
2019-03-05T22:43:58.229Z,2.90
2019-03-05T22:49:04.472Z,2.95
2019-03-05T22:54:10.644Z,2.25
2019-03-05T22:59:17.600Z,3.08
2019-03-05T23:04:33.221Z,2.98
2019-03-05T23:09:39.459Z,2.35
2019-03-05T23:14:45.933Z,2.60
2019-03-05T23:19:52.249Z,3.02
2019-03-05T23:24:58.517Z,2.20
2019-03-05T23:30:07.431Z,2.55
2019-03-05T23:35:13.973Z,4.08
2019-03-05T23:40:20.386Z,10.25
2019-03-05T23:45:26.409Z,3.12
2019-03-05T23:50:32.467Z,3.50
2019-03-05T23:55:38.629Z,4.10
